TimeEST,TemperatureF,Dew PointF,Humidity,Sea Level PressureIn,VisibilityMPH,Wind Direction,Wind SpeedMPH,Gust SpeedMPH,PrecipitationIn,Events,Conditions,WindDirDegrees,DateUTC
12:15 AM,16.3,10.4,77,30.05,1.2,West,23.0,29.9,N/A,Snow,Light Snow,270,2013-12-11 05:15:00
12:35 AM,16.2,9.9,76,30.06,1.8,West,21.9,32.2,N/A,Snow,Light Snow,270,2013-12-11 05:35:00
12:55 AM,16.5,8.8,72,30.05,4.0,West,19.6,27.6,N/A,,Haze,270,2013-12-11 05:55:00
1:15 AM,16.2,9.0,73,30.06,2.5,West,25.3,33.4,N/A,Snow,Light Snow,270,2013-12-11 06:15:00
1:35 AM,16.5,9.1,73,30.06,3.0,West,20.7,31.1,N/A,Snow,Light Snow,280,2013-12-11 06:35:00
1:55 AM,16.3,10.4,77,30.07,1.5,West,20.7,33.4,N/A,Snow,Light Snow,280,2013-12-11 06:55:00
2:14 AM,16.2,9.0,73,30.07,4.0,West,25.3,29.9,N/A,,Haze,270,2013-12-11 07:14:00
2:35 AM,15.8,10.0,78,30.08,1.5,West,20.7,29.9,N/A,Snow,Light Snow,280,2013-12-11 07:35:00
2:55 AM,15.4,10.4,80,30.09,0.8,West,23.0,32.2,N/A,Snow,Light Snow,270,2013-12-11 07:55:00
3:14 AM,15.4,10.9,82,30.10,0.8,West,24.2,27.6,N/A,Snow,Light Snow,280,2013-12-11 08:14:00
3:35 AM,15.3,10.9,83,30.11,0.8,West,26.5,33.4,N/A,Snow,Light Snow,280,2013-12-11 08:35:00
3:55 AM,15.1,11.1,84,30.11,0.8,WNW,23.0,29.9,N/A,Snow,Snow,290,2013-12-11 08:55:00
4:14 AM,14.5,10.6,84,30.11,0.5,WNW,23.0,32.2,N/A,Snow,Snow,290,2013-12-11 09:14:00
4:35 AM,14.4,10.6,85,30.11,0.5,WNW,23.0,32.2,N/A,Snow,Heavy Snow,290,2013-12-11 09:35:00
4:55 AM,14.2,10.0,84,30.12,0.8,WNW,21.9,32.2,N/A,Snow,Snow,290,2013-12-11 09:55:00
5:14 AM,14.0,9.9,84,30.12,0.5,WNW,23.0,29.9,N/A,Snow,Snow,290,2013-12-11 10:14:00
5:35 AM,14.4,9.9,82,30.13,1.0,West,25.3,-,N/A,Snow,Light Snow,280,2013-12-11 10:35:00
5:55 AM,14.0,8.8,80,30.13,0.8,WNW,20.7,28.8,N/A,Snow,Light Snow,290,2013-12-11 10:55:00
6:15 AM,13.6,7.0,75,30.13,1.0,WNW,21.9,32.2,N/A,Snow,Light Snow,290,2013-12-11 11:15:00
6:35 AM,13.8,6.3,72,30.14,2.0,WNW,24.2,29.9,N/A,Snow,Light Snow,290,2013-12-11 11:35:00
6:55 AM,13.8,4.6,67,30.15,3.0,WNW,17.3,32.2,N/A,,Haze,300,2013-12-11 11:55:00
7:15 AM,13.5,6.3,73,30.16,1.5,West,20.7,29.9,N/A,Snow,Light Snow,280,2013-12-11 12:15:00
7:35 AM,13.6,6.6,74,30.17,2.0,West,20.7,24.2,N/A,Snow,Light Snow,280,2013-12-11 12:35:00
7:54 AM,13.3,4.6,68,30.18,3.0,West,19.6,29.9,N/A,,Haze,270,2013-12-11 12:54:00
8:59 AM,13.6,5.0,68,30.20,4.0,West,21.9,27.6,N/A,,Haze,280,2013-12-11 13:59:00
9:15 AM,13.8,3.9,65,30.21,10.0,West,18.4,25.3,N/A,,Overcast,280,2013-12-11 14:15:00
9:35 AM,13.6,3.6,64,30.22,7.0,West,16.1,24.2,N/A,,Overcast,280,2013-12-11 14:35:00
9:54 AM,13.8,4.3,66,30.22,3.0,WNW,18.4,-,N/A,,Haze,290,2013-12-11 14:54:00
10:15 AM,14.0,6.4,72,30.23,1.5,West,23.0,31.1,N/A,Snow,Light Snow,270,2013-12-11 15:15:00
10:35 AM,13.8,6.8,74,30.23,1.2,WNW,16.1,26.5,N/A,Snow,Light Snow,300,2013-12-11 15:35:00
10:54 AM,13.6,5.4,70,30.24,2.5,WNW,13.8,20.7,N/A,Snow,Light Snow,290,2013-12-11 15:54:00
11:15 AM,13.8,5.9,71,30.24,2.0,WNW,18.4,24.2,N/A,Snow,Light Snow,290,2013-12-11 16:15:00
11:35 AM,13.8,5.5,70,30.25,2.0,WNW,18.4,23.0,N/A,Snow,Light Snow,290,2013-12-11 16:35:00
11:54 AM,13.6,5.4,70,30.25,2.5,WNW,17.3,25.3,N/A,Snow,Light Snow,290,2013-12-11 16:54:00
12:15 PM,13.8,4.6,67,30.25,4.0,West,17.3,21.9,N/A,Snow,Light Snow,280,2013-12-11 17:15:00
12:35 PM,13.6,5.5,70,30.24,2.0,West,17.3,24.2,N/A,Snow,Light Snow,280,2013-12-11 17:35:00
12:55 PM,14.0,4.6,66,30.24,5.0,West,15.0,21.9,N/A,,Haze,280,2013-12-11 17:55:00
1:15 PM,13.6,6.6,74,30.24,1.0,WNW,13.8,23.0,N/A,Snow,Light Snow,300,2013-12-11 18:15:00
1:35 PM,14.0,4.6,66,30.24,4.0,WNW,15.0,23.0,N/A,,Haze,300,2013-12-11 18:35:00
1:55 PM,13.8,5.9,71,30.24,2.0,WNW,13.8,20.7,N/A,Snow,Light Snow,290,2013-12-11 18:55:00
2:15 PM,13.6,6.4,73,30.25,1.8,West,16.1,23.0,N/A,Snow,Light Snow,280,2013-12-11 19:15:00
2:35 PM,13.8,5.7,70,30.25,1.2,NW,12.7,-,N/A,Snow,Light Snow,310,2013-12-11 19:35:00
2:55 PM,14.0,5.9,70,30.25,2.0,WNW,15.0,21.9,N/A,Snow,Light Snow,290,2013-12-11 19:55:00
3:15 PM,13.8,5.7,70,30.25,2.0,West,16.1,21.9,N/A,Snow,Light Snow,280,2013-12-11 20:15:00
3:34 PM,13.8,7.0,74,30.26,2.0,West,13.8,-,N/A,Snow,Light Snow,280,2013-12-11 20:34:00
3:55 PM,14.0,5.4,69,30.26,2.0,WNW,16.1,21.9,N/A,Snow,Light Snow,290,2013-12-11 20:55:00
4:15 PM,13.8,6.1,71,30.27,1.8,WNW,17.3,20.7,N/A,Snow,Light Snow,290,2013-12-11 21:15:00
4:34 PM,14.0,6.1,71,30.27,1.5,West,15.0,21.9,N/A,Snow,Light Snow,280,2013-12-11 21:34:00
4:55 PM,14.0,7.0,74,30.28,1.5,WNW,12.7,-,N/A,Snow,Light Snow,290,2013-12-11 21:55:00
5:15 PM,14.5,5.4,67,30.28,10.0,West,11.5,-,N/A,,Overcast,270,2013-12-11 22:15:00
5:34 PM,14.5,2.8,60,30.29,10.0,West,13.8,17.3,N/A,,Overcast,280,2013-12-11 22:34:00
5:55 PM,14.5,1.9,57,30.29,10.0,WNW,11.5,20.7,N/A,,Overcast,290,2013-12-11 22:55:00
6:15 PM,14.0,4.3,65,30.30,4.0,WNW,13.8,21.9,N/A,Snow,Light Snow,300,2013-12-11 23:15:00
6:35 PM,14.2,3.6,63,30.31,7.0,West,17.3,24.2,N/A,,Overcast,280,2013-12-11 23:35:00
6:55 PM,14.2,5.7,69,30.32,4.0,WNW,13.8,-,N/A,Snow,Light Snow,290,2013-12-11 23:55:00
7:15 PM,14.0,2.1,59,30.32,7.0,West,13.8,-,N/A,,Overcast,270,2013-12-12 00:15:00
7:35 PM,14.4,4.6,65,30.32,4.0,WNW,19.6,25.3,N/A,Snow,Light Snow,290,2013-12-12 00:35:00
7:55 PM,14.0,3.9,64,30.32,4.0,West,16.1,25.3,N/A,,Haze,270,2013-12-12 00:55:00
8:15 PM,14.5,4.3,64,30.33,7.0,West,17.3,21.9,N/A,,Overcast,280,2013-12-12 01:15:00
8:35 PM,14.4,4.8,66,30.33,4.0,West,18.4,25.3,N/A,,Haze,280,2013-12-12 01:35:00
8:55 PM,14.2,5.5,69,30.33,5.0,West,19.6,-,N/A,,Haze,270,2013-12-12 01:55:00
9:14 PM,13.8,3.7,64,30.33,7.0,WNW,15.0,21.9,N/A,,Overcast,290,2013-12-12 02:14:00
9:35 PM,13.8,4.1,65,30.32,7.0,WNW,16.1,24.2,N/A,Snow,Light Snow,290,2013-12-12 02:35:00
9:55 PM,13.5,2.8,63,30.32,7.0,West,12.7,24.2,N/A,,Overcast,270,2013-12-12 02:55:00
10:14 PM,13.3,2.8,63,30.32,10.0,West,17.3,-,N/A,,Overcast,270,2013-12-12 03:14:00
10:35 PM,13.5,2.8,63,30.31,10.0,West,13.8,18.4,N/A,,Overcast,270,2013-12-12 03:35:00
10:55 PM,13.6,3.2,63,30.31,10.0,West,15.0,23.0,N/A,,Overcast,280,2013-12-12 03:55:00
11:14 PM,13.6,3.0,63,30.31,10.0,West,13.8,23.0,N/A,,Overcast,280,2013-12-12 04:14:00
11:35 PM,13.8,4.5,66,30.32,7.0,West,16.1,21.9,N/A,,Overcast,280,2013-12-12 04:35:00
11:55 PM,13.8,5.2,69,30.32,4.0,West,15.0,20.7,N/A,Snow,Light Snow,260,2013-12-12 04:55:00